createdAt,value
2017-08-13T00:00:13.940Z,17.15
2017-08-13T00:01:14.252Z,17.18
2017-08-13T00:02:13.914Z,17.19
2017-08-13T00:03:14.221Z,17.16
2017-08-13T00:04:14.170Z,17.18
2017-08-13T00:05:13.861Z,17.19
2017-08-13T00:06:14.151Z,17.19
2017-08-13T00:07:13.510Z,17.12
2017-08-13T00:08:13.821Z,17.16
2017-08-13T00:09:14.110Z,17.08
2017-08-13T00:10:13.779Z,17.09
2017-08-13T00:11:14.072Z,17.15
2017-08-13T00:12:14.061Z,17.12
2017-08-13T00:13:14.032Z,17.06
2017-08-13T00:14:14.019Z,17.08
2017-08-13T00:15:14.008Z,17.06
2017-08-13T00:16:13.999Z,17.09
2017-08-13T00:17:13.990Z,17.03
2017-08-13T00:18:13.670Z,17.01
2017-08-13T00:19:13.952Z,17
2017-08-13T00:20:13.980Z,17.06
2017-08-13T00:21:13.602Z,16.98
2017-08-13T00:22:13.966Z,17
2017-08-13T00:23:13.584Z,16.96
2017-08-13T00:24:13.871Z,17.06
2017-08-13T00:25:13.533Z,16.97
2017-08-13T00:26:13.539Z,17.01
2017-08-13T00:27:13.512Z,17.05
2017-08-13T00:28:13.878Z,17.01
2017-08-13T00:29:13.461Z,17.05
2017-08-13T00:30:13.558Z,16.97
2017-08-13T00:31:13.430Z,17.03
2017-08-13T00:32:13.735Z,17.01
2017-08-13T00:33:13.090Z,17
2017-08-13T00:34:13.700Z,17
2017-08-13T00:35:13.669Z,17.06
2017-08-13T00:36:13.711Z,17.05
2017-08-13T00:37:13.641Z,17.05
2017-08-13T00:38:13.685Z,17.01
2017-08-13T00:39:13.317Z,17.08
2017-08-13T00:40:13.619Z,17.03
2017-08-13T00:41:13.271Z,16.97
2017-08-13T00:42:13.570Z,16.97
2017-08-13T00:43:13.648Z,16.93
2017-08-13T00:44:13.272Z,16.98
2017-08-13T00:45:13.226Z,16.94
2017-08-13T00:46:13.549Z,17.01
2017-08-13T00:47:13.582Z,16.98
2017-08-13T00:48:13.469Z,17.01
2017-08-13T00:49:13.191Z,17.01
2017-08-13T00:50:13.438Z,16.96
2017-08-13T00:51:13.120Z,17
2017-08-13T00:52:13.408Z,17.08
2017-08-13T00:53:13.079Z,16.91
2017-08-13T00:54:13.383Z,16.96
2017-08-13T00:55:13.356Z,17.06
2017-08-13T00:56:13.048Z,16.94
2017-08-13T00:57:13.329Z,16.93
2017-08-13T00:58:13.299Z,16.96
2017-08-13T00:59:12.979Z,16.93
2017-08-13T01:00:13.259Z,16.9
2017-08-13T01:01:12.940Z,16.9
2017-08-13T01:02:13.279Z,16.87
2017-08-13T01:03:13.221Z,16.85
2017-08-13T01:04:13.200Z,16.81
2017-08-13T01:05:13.180Z,16.82
2017-08-13T01:06:12.861Z,16.9
2017-08-13T01:07:12.838Z,16.82
2017-08-13T01:08:13.127Z,16.82
2017-08-13T01:09:12.808Z,16.87
2017-08-13T01:10:12.789Z,16.82
2017-08-13T01:11:13.085Z,16.78
2017-08-13T01:12:13.071Z,16.83
2017-08-13T01:13:13.039Z,16.85
2017-08-13T01:14:12.739Z,16.69
2017-08-13T01:15:12.709Z,16.76
2017-08-13T01:16:12.998Z,16.74
2017-08-13T01:17:12.680Z,16.71
2017-08-13T01:18:12.668Z,16.81
2017-08-13T01:19:12.959Z,16.75
2017-08-13T01:20:12.930Z,16.78
2017-08-13T01:21:12.615Z,16.76
2017-08-13T01:22:12.897Z,16.72
2017-08-13T01:23:12.926Z,16.66
2017-08-13T01:24:12.261Z,16.69
2017-08-13T01:25:12.550Z,16.66
2017-08-13T01:26:12.524Z,16.68
2017-08-13T01:27:12.808Z,16.68
2017-08-13T01:28:12.485Z,16.64
2017-08-13T01:29:12.781Z,16.69
2017-08-13T01:30:12.768Z,16.66
2017-08-13T01:31:12.740Z,16.69
2017-08-13T01:32:12.430Z,16.69
2017-08-13T01:33:12.409Z,16.71
2017-08-13T01:34:12.389Z,16.66
2017-08-13T01:35:12.370Z,16.66
2017-08-13T01:36:12.371Z,16.74
2017-08-13T01:37:12.359Z,16.71
2017-08-13T01:38:12.323Z,16.69
2017-08-13T01:39:12.317Z,16.69
2017-08-13T01:40:12.602Z,16.78
2017-08-13T01:41:11.964Z,16.75
2017-08-13T01:42:12.256Z,16.69
2017-08-13T01:43:12.549Z,16.71
2017-08-13T01:44:12.539Z,16.74
2017-08-13T01:45:12.220Z,16.68
2017-08-13T01:46:12.189Z,16.71
2017-08-13T01:47:12.480Z,16.74
2017-08-13T01:48:12.460Z,16.74
2017-08-13T01:49:12.451Z,16.71
2017-08-13T01:50:12.439Z,16.79
2017-08-13T01:51:12.111Z,16.66
2017-08-13T01:52:12.100Z,16.72
2017-08-13T01:53:12.079Z,16.78
2017-08-13T01:54:12.080Z,16.69
2017-08-13T01:55:12.049Z,16.72
2017-08-13T01:56:12.341Z,16.79
2017-08-13T01:57:12.015Z,16.83
2017-08-13T01:58:12.006Z,16.76
2017-08-13T01:59:11.984Z,16.72
2017-08-13T02:00:12.279Z,16.69
2017-08-13T02:01:12.255Z,16.81
2017-08-13T02:02:12.250Z,16.74
2017-08-13T02:03:12.204Z,16.79
2017-08-13T02:04:12.200Z,16.81
2017-08-13T02:05:11.880Z,16.76
2017-08-13T02:06:12.192Z,16.72
2017-08-13T02:07:12.153Z,16.76
2017-08-13T02:08:12.169Z,16.82
2017-08-13T02:09:11.811Z,16.78
2017-08-13T02:10:12.112Z,16.74
2017-08-13T02:11:12.101Z,16.78
2017-08-13T02:12:12.070Z,16.79
2017-08-13T02:13:11.739Z,16.76
2017-08-13T02:14:12.049Z,16.79
2017-08-13T02:15:11.721Z,16.69
2017-08-13T02:16:12.017Z,16.75
2017-08-13T02:17:12.002Z,16.74
2017-08-13T02:18:11.980Z,16.76
2017-08-13T02:19:11.653Z,16.69
2017-08-13T02:20:11.630Z,16.74
2017-08-13T02:21:11.618Z,16.83
2017-08-13T02:22:11.910Z,16.79
2017-08-13T02:23:11.596Z,16.76
2017-08-13T02:24:11.860Z,16.79
2017-08-13T02:25:11.331Z,16.79
2017-08-13T02:26:11.840Z,16.75
2017-08-13T02:27:11.549Z,16.78
2017-08-13T02:28:11.795Z,16.79
2017-08-13T02:29:11.490Z,16.75
2017-08-13T02:30:11.759Z,16.69
2017-08-13T02:31:11.478Z,16.76
2017-08-13T02:32:11.438Z,16.78
2017-08-13T02:33:11.715Z,16.81
2017-08-13T02:34:11.409Z,16.82
2017-08-13T02:35:11.400Z,16.76
2017-08-13T02:36:11.668Z,16.75
2017-08-13T02:37:11.649Z,16.76
2017-08-13T02:38:11.670Z,16.81
2017-08-13T02:39:11.326Z,16.79
2017-08-13T02:40:11.590Z,16.79
2017-08-13T02:41:11.577Z,16.74
2017-08-13T02:42:11.298Z,16.75
2017-08-13T02:43:11.549Z,16.64
2017-08-13T02:44:11.554Z,16.69
2017-08-13T02:45:11.219Z,16.61
2017-08-13T02:46:11.513Z,16.68
2017-08-13T02:47:11.500Z,16.64
2017-08-13T02:48:11.480Z,16.68
2017-08-13T02:49:11.450Z,16.68
2017-08-13T02:50:11.441Z,16.76
2017-08-13T02:51:11.114Z,16.69
2017-08-13T02:52:10.780Z,16.69
2017-08-13T02:53:11.410Z,16.57
2017-08-13T02:54:11.366Z,16.66
2017-08-13T02:55:11.049Z,16.66
2017-08-13T02:56:11.146Z,16.69
2017-08-13T02:57:11.052Z,16.68
2017-08-13T02:58:11.301Z,16.63
2017-08-13T02:59:11.000Z,16.64
2017-08-13T03:00:10.972Z,16.58
2017-08-13T03:01:10.963Z,16.57
2017-08-13T03:02:11.281Z,16.45
2017-08-13T03:03:10.930Z,16.48
2017-08-13T03:04:10.973Z,16.43
2017-08-13T03:05:11.192Z,16.46
2017-08-13T03:06:10.879Z,16.48
2017-08-13T03:07:10.857Z,16.41
2017-08-13T03:08:11.230Z,16.36
2017-08-13T03:09:10.809Z,16.42
2017-08-13T03:10:10.792Z,16.38
2017-08-13T03:11:10.778Z,16.38
2017-08-13T03:12:11.130Z,16.43
2017-08-13T03:13:11.061Z,16.38
2017-08-13T03:14:10.729Z,16.34
2017-08-13T03:15:11.017Z,16.39
2017-08-13T03:16:11.011Z,16.35
2017-08-13T03:17:10.998Z,16.35
2017-08-13T03:18:10.667Z,16.31
2017-08-13T03:19:10.640Z,16.35
2017-08-13T03:20:10.631Z,16.31
2017-08-13T03:21:10.916Z,16.34
2017-08-13T03:22:10.960Z,16.28
2017-08-13T03:23:10.885Z,16.32
2017-08-13T03:24:10.579Z,16.38
2017-08-13T03:25:10.908Z,16.26
2017-08-13T03:26:10.532Z,16.31
2017-08-13T03:27:10.811Z,16.32
2017-08-13T03:28:10.789Z,16.28
2017-08-13T03:29:10.466Z,16.27
2017-08-13T03:30:10.770Z,16.27
2017-08-13T03:31:10.450Z,16.21
2017-08-13T03:32:10.751Z,16.13
2017-08-13T03:33:10.760Z,16.13
2017-08-13T03:34:10.090Z,16.13
2017-08-13T03:35:10.677Z,16.24
2017-08-13T03:36:10.347Z,16.13
2017-08-13T03:37:10.700Z,16.15
2017-08-13T03:38:10.618Z,16.23
2017-08-13T03:39:10.664Z,16.27
2017-08-13T03:40:10.591Z,16.13
2017-08-13T03:41:10.580Z,16.16
2017-08-13T03:42:10.559Z,16.12
2017-08-13T03:43:10.548Z,16.16
2017-08-13T03:44:10.219Z,16.2
2017-08-13T03:45:10.201Z,16.12
2017-08-13T03:46:10.180Z,16.13
2017-08-13T03:47:10.469Z,16.13
2017-08-13T03:48:10.150Z,16.16
2017-08-13T03:49:10.438Z,16.02
2017-08-13T03:50:10.419Z,16.04
2017-08-13T03:51:10.100Z,16.07
2017-08-13T03:52:10.079Z,16.07
2017-08-13T03:53:10.379Z,16.02
2017-08-13T03:54:10.361Z,15.94
2017-08-13T03:55:10.390Z,15.89
2017-08-13T03:56:09.700Z,15.89
2017-08-13T03:57:10.009Z,15.95
2017-08-13T03:58:10.288Z,15.9
2017-08-13T03:59:10.320Z,15.9
2017-08-13T04:00:10.259Z,15.86
2017-08-13T04:01:10.227Z,15.89
2017-08-13T04:02:10.227Z,15.85
2017-08-13T04:03:10.211Z,15.92
2017-08-13T04:04:09.868Z,15.89
2017-08-13T04:05:09.601Z,15.9
2017-08-13T04:06:09.850Z,15.83
2017-08-13T04:07:09.821Z,15.8
2017-08-13T04:08:09.815Z,15.83
2017-08-13T04:09:10.137Z,15.76
2017-08-13T04:10:10.082Z,15.82
2017-08-13T04:11:09.760Z,15.77
2017-08-13T04:12:09.751Z,15.79
2017-08-13T04:13:09.719Z,15.79
2017-08-13T04:14:09.709Z,15.77
2017-08-13T04:15:09.998Z,15.79
2017-08-13T04:16:09.982Z,15.72
2017-08-13T04:17:09.641Z,15.8
2017-08-13T04:18:09.932Z,15.77
2017-08-13T04:19:09.670Z,15.72
2017-08-13T04:20:09.942Z,15.72
2017-08-13T04:21:09.580Z,15.76
2017-08-13T04:22:09.984Z,15.64
2017-08-13T04:23:09.867Z,15.76
2017-08-13T04:24:09.890Z,15.75
2017-08-13T04:25:09.819Z,15.64
2017-08-13T04:26:09.800Z,15.65
2017-08-13T04:27:09.490Z,15.53
2017-08-13T04:28:09.841Z,15.57
2017-08-13T04:29:09.746Z,15.53
2017-08-13T04:30:09.730Z,15.47
2017-08-13T04:31:09.721Z,15.47
2017-08-13T04:32:09.710Z,15.57
2017-08-13T04:33:09.679Z,15.54
2017-08-13T04:34:09.370Z,15.54
2017-08-13T04:35:09.651Z,15.5
2017-08-13T04:36:09.690Z,15.64
2017-08-13T04:37:09.312Z,15.52
2017-08-13T04:38:09.301Z,15.6
2017-08-13T04:39:09.581Z,15.52
2017-08-13T04:40:09.558Z,15.67
2017-08-13T04:41:09.551Z,15.65
2017-08-13T04:42:09.526Z,15.61
2017-08-13T04:43:09.520Z,15.64
2017-08-13T04:44:09.507Z,15.65
2017-08-13T04:45:09.520Z,15.65
2017-08-13T04:46:09.465Z,15.64
2017-08-13T04:47:09.130Z,15.61
2017-08-13T04:48:09.128Z,15.61
2017-08-13T04:49:09.400Z,15.57
2017-08-13T04:50:09.420Z,15.67
2017-08-13T04:51:09.058Z,15.71
2017-08-13T04:52:09.058Z,15.71
2017-08-13T04:53:09.019Z,15.61
2017-08-13T04:54:09.017Z,15.65
2017-08-13T04:55:08.991Z,15.64
2017-08-13T04:56:09.272Z,15.65
2017-08-13T04:57:08.951Z,15.75
2017-08-13T04:58:09.241Z,15.76
2017-08-13T04:59:09.230Z,15.65
2017-08-13T05:00:09.209Z,15.77
2017-08-13T05:01:09.209Z,15.69
2017-08-13T05:02:08.882Z,15.75
2017-08-13T05:03:09.147Z,15.72
2017-08-13T05:04:09.143Z,15.72
2017-08-13T05:05:09.116Z,15.79
2017-08-13T05:06:09.094Z,15.72
2017-08-13T05:07:09.086Z,15.75
2017-08-13T05:08:08.768Z,15.75
2017-08-13T05:09:09.070Z,15.8
2017-08-13T05:10:09.041Z,15.71
2017-08-13T05:11:08.419Z,15.75
2017-08-13T05:12:08.711Z,15.79
2017-08-13T05:13:08.692Z,15.79
2017-08-13T05:14:08.670Z,15.72
2017-08-13T05:15:08.951Z,15.77
2017-08-13T05:16:08.930Z,15.82
2017-08-13T05:17:08.920Z,15.8
2017-08-13T05:18:08.588Z,15.8
2017-08-13T05:19:08.880Z,15.79
2017-08-13T05:20:08.863Z,15.82
2017-08-13T05:21:08.538Z,15.79
2017-08-13T05:22:08.832Z,15.68
2017-08-13T05:23:08.819Z,15.76
2017-08-13T05:24:08.494Z,15.85
2017-08-13T05:25:08.769Z,15.87
2017-08-13T05:26:08.460Z,15.89
2017-08-13T05:27:08.451Z,16
2017-08-13T05:28:08.729Z,15.8
2017-08-13T05:29:08.720Z,15.83
2017-08-13T05:30:08.379Z,15.76
2017-08-13T05:31:08.374Z,15.92
2017-08-13T05:32:08.650Z,15.9
2017-08-13T05:33:08.640Z,16.01
2017-08-13T05:34:08.613Z,16.01
2017-08-13T05:35:08.610Z,16.05
2017-08-13T05:36:08.609Z,16.08
2017-08-13T05:37:08.257Z,16.08
2017-08-13T05:38:08.560Z,16.02
2017-08-13T05:39:08.540Z,15.94
2017-08-13T05:40:08.541Z,15.97
2017-08-13T05:41:08.210Z,16.01
2017-08-13T05:42:08.486Z,16.01
2017-08-13T05:43:08.152Z,16.07
2017-08-13T05:44:08.469Z,16.05
2017-08-13T05:45:08.131Z,16.05
2017-08-13T05:46:08.112Z,16.15
2017-08-13T05:47:08.083Z,16.13
2017-08-13T05:48:07.764Z,16.23
2017-08-13T05:49:07.751Z,16.28
2017-08-13T05:50:08.044Z,16.27
2017-08-13T05:51:08.022Z,16.31
2017-08-13T05:52:08.010Z,16.38
2017-08-13T05:53:08.301Z,16.32
2017-08-13T05:54:07.981Z,16.41
2017-08-13T05:55:08.268Z,16.43
2017-08-13T05:56:07.939Z,16.51
2017-08-13T05:57:07.929Z,16.46
2017-08-13T05:58:07.609Z,16.42
2017-08-13T05:59:07.889Z,16.56
2017-08-13T06:00:08.181Z,16.66
2017-08-13T06:01:08.188Z,16.6
2017-08-13T06:02:07.891Z,16.66
2017-08-13T06:03:08.131Z,16.74
2017-08-13T06:04:07.558Z,16.64
2017-08-13T06:05:07.791Z,16.74
2017-08-13T06:06:07.771Z,16.76
2017-08-13T06:07:08.060Z,16.71
2017-08-13T06:08:08.057Z,16.69
2017-08-13T06:09:07.741Z,16.78
2017-08-13T06:10:08.008Z,16.79
2017-08-13T06:11:07.988Z,16.69
2017-08-13T06:12:07.664Z,16.74
2017-08-13T06:13:07.957Z,16.78
2017-08-13T06:14:07.959Z,16.85
2017-08-13T06:15:07.634Z,16.9
2017-08-13T06:16:07.600Z,16.94
2017-08-13T06:17:07.601Z,16.96
2017-08-13T06:18:07.882Z,16.96
2017-08-13T06:19:07.870Z,16.87
2017-08-13T06:20:07.851Z,16.94
2017-08-13T06:21:07.830Z,16.97
2017-08-13T06:22:07.810Z,16.97
2017-08-13T06:23:07.796Z,17
2017-08-13T06:24:07.529Z,17.06
2017-08-13T06:25:07.479Z,17.01
2017-08-13T06:26:07.749Z,17.16
2017-08-13T06:27:07.492Z,17.06
2017-08-13T06:28:07.412Z,17.16
2017-08-13T06:29:07.714Z,17.11
2017-08-13T06:30:07.676Z,17.03
2017-08-13T06:31:07.382Z,17.12
2017-08-13T06:32:07.381Z,17.19
2017-08-13T06:33:07.741Z,17.18
2017-08-13T06:34:07.311Z,17.33
2017-08-13T06:35:07.312Z,17.33
2017-08-13T06:36:07.391Z,17.3
2017-08-13T06:37:07.612Z,17.37
2017-08-13T06:38:07.259Z,17.3
2017-08-13T06:39:07.659Z,17.34
2017-08-13T06:40:07.541Z,17.33
2017-08-13T06:41:07.214Z,17.4
2017-08-13T06:42:07.543Z,17.4
2017-08-13T06:43:07.540Z,17.4
2017-08-13T06:44:07.152Z,17.51
2017-08-13T06:45:07.472Z,17.6
2017-08-13T06:46:07.441Z,17.6
2017-08-13T06:47:07.161Z,17.68
2017-08-13T06:48:07.110Z,17.67
2017-08-13T06:49:07.383Z,17.67
2017-08-13T06:50:07.389Z,17.77
2017-08-13T06:51:07.418Z,17.8
2017-08-13T06:52:07.327Z,17.75
2017-08-13T06:53:07.314Z,17.77
2017-08-13T06:54:07.309Z,17.75
2017-08-13T06:55:07.295Z,17.8
2017-08-13T06:56:07.269Z,17.77
2017-08-13T06:57:07.315Z,17.77
2017-08-13T06:58:07.238Z,17.65
2017-08-13T06:59:07.263Z,17.78
2017-08-13T07:00:07.226Z,17.98
2017-08-13T07:01:07.232Z,18.02
2017-08-13T07:02:06.579Z,18.05
2017-08-13T07:03:07.261Z,18.18
2017-08-13T07:04:07.145Z,18.15
2017-08-13T07:05:07.182Z,18.23
2017-08-13T07:06:07.111Z,18.3
2017-08-13T07:07:07.106Z,18.26
2017-08-13T07:08:07.081Z,18.3
2017-08-13T07:09:07.058Z,18.33
2017-08-13T07:10:07.068Z,18.38
2017-08-13T07:11:06.711Z,18.38
2017-08-13T07:12:07.023Z,18.26
2017-08-13T07:13:06.722Z,18.2
2017-08-13T07:14:07.012Z,18.26
2017-08-13T07:15:06.980Z,18.38
2017-08-13T07:16:06.663Z,18.25
2017-08-13T07:17:06.972Z,18.35
2017-08-13T07:18:06.930Z,18.47
2017-08-13T07:19:06.630Z,18.59
2017-08-13T07:20:07.010Z,18.55
2017-08-13T07:21:06.886Z,18.66
2017-08-13T07:22:06.567Z,18.69
2017-08-13T07:23:06.532Z,18.78
2017-08-13T07:24:06.530Z,18.93
2017-08-13T07:25:06.810Z,18.95
2017-08-13T07:26:06.859Z,19.02
2017-08-13T07:27:06.792Z,19.12
2017-08-13T07:28:06.459Z,19.22
2017-08-13T07:29:06.751Z,19.46
2017-08-13T07:30:06.755Z,19.56
2017-08-13T07:31:06.741Z,19.67
2017-08-13T07:32:06.410Z,19.71
2017-08-13T07:33:06.711Z,19.74
2017-08-13T07:34:06.393Z,19.77
2017-08-13T07:35:06.677Z,19.85
2017-08-13T07:36:06.670Z,20.06
2017-08-13T07:37:06.649Z,20.2
2017-08-13T07:38:06.034Z,20.43
2017-08-13T07:39:06.631Z,20.88
2017-08-13T07:40:06.009Z,21.09
2017-08-13T07:41:05.996Z,21.44
2017-08-13T07:42:06.592Z,21.43
2017-08-13T07:43:06.260Z,21.49
2017-08-13T07:44:06.252Z,21.92
2017-08-13T07:45:06.557Z,22.55
2017-08-13T07:46:06.550Z,22.99
2017-08-13T07:47:06.225Z,23.82
2017-08-13T07:48:06.211Z,24.44
2017-08-13T07:49:06.521Z,25.05
2017-08-13T07:50:06.213Z,25.64
2017-08-13T07:51:06.933Z,26.06
2017-08-13T07:52:05.880Z,26.23
2017-08-13T07:53:06.500Z,25.56
2017-08-13T07:54:06.465Z,23.87
2017-08-13T07:55:06.477Z,23.22
2017-08-13T07:56:05.860Z,23.47
2017-08-13T07:57:06.448Z,24.52
2017-08-13T07:58:06.448Z,25.39
2017-08-13T07:59:06.200Z,25.69
2017-08-13T08:00:06.141Z,25.96
2017-08-13T08:01:06.141Z,25.92
2017-08-13T08:02:06.122Z,26.34
2017-08-13T08:03:06.440Z,26
2017-08-13T08:04:06.415Z,26.03
2017-08-13T08:05:05.823Z,26
2017-08-13T08:06:06.101Z,25.37
2017-08-13T08:07:05.862Z,25.12
2017-08-13T08:08:06.421Z,25.85
2017-08-13T08:09:05.800Z,26.57
2017-08-13T08:10:05.787Z,27.01
2017-08-13T08:11:06.428Z,27.01
2017-08-13T08:12:05.772Z,26.67
2017-08-13T08:13:06.141Z,26.27
2017-08-13T08:14:06.071Z,25.66
2017-08-13T08:15:06.380Z,25.7
2017-08-13T08:16:06.375Z,25.76
2017-08-13T08:17:05.750Z,25.77
2017-08-13T08:18:06.062Z,25.89
2017-08-13T08:19:06.050Z,26.26
2017-08-13T08:20:06.053Z,26.81
2017-08-13T08:21:06.050Z,27.16
2017-08-13T08:22:06.050Z,27.13
2017-08-13T08:23:06.344Z,26.7
2017-08-13T08:24:06.033Z,26.82
2017-08-13T08:25:05.730Z,27
2017-08-13T08:26:06.040Z,26.79
2017-08-13T08:27:06.338Z,27.01
2017-08-13T08:28:06.048Z,27.5
2017-08-13T08:29:06.040Z,27.72
2017-08-13T08:30:06.055Z,27.81
2017-08-13T08:31:06.032Z,27.79
2017-08-13T08:32:06.443Z,27.43
2017-08-13T08:33:06.316Z,26.79
2017-08-13T08:34:06.334Z,26.41
2017-08-13T08:35:06.317Z,26.04
2017-08-13T08:36:06.120Z,25.49
2017-08-13T08:37:06.313Z,24.65
2017-08-13T08:38:06.319Z,24.24
2017-08-13T08:39:06.008Z,23.99
2017-08-13T08:40:06.311Z,24.32
2017-08-13T08:41:06.014Z,24.75
2017-08-13T08:42:06.301Z,25.3
2017-08-13T08:43:05.981Z,25.39
2017-08-13T08:44:06.299Z,25.27
2017-08-13T08:45:05.981Z,25.67
2017-08-13T08:46:06.291Z,25.54
2017-08-13T08:47:06.261Z,25.08
2017-08-13T08:48:06.273Z,24.33
2017-08-13T08:49:06.270Z,23.8
2017-08-13T08:50:05.948Z,23.52
2017-08-13T08:51:06.250Z,23.92
2017-08-13T08:52:06.229Z,24.69
2017-08-13T08:53:05.922Z,24.75
2017-08-13T08:54:06.242Z,25.26
2017-08-13T08:55:06.227Z,25.89
2017-08-13T08:56:06.213Z,26.57
2017-08-13T08:57:06.257Z,27.15
2017-08-13T08:58:06.199Z,27.31
2017-08-13T08:59:05.925Z,27.44
2017-08-13T09:00:05.901Z,27.04
2017-08-13T09:01:06.197Z,25.82
2017-08-13T09:02:05.576Z,25.36
2017-08-13T09:03:05.895Z,25.55
2017-08-13T09:04:06.185Z,24.89
2017-08-13T09:05:05.872Z,24.92
2017-08-13T09:06:06.175Z,24.58
2017-08-13T09:07:05.883Z,25.15
2017-08-13T09:08:05.870Z,25.7
2017-08-13T09:09:06.210Z,25.74
2017-08-13T09:10:06.219Z,26.24
2017-08-13T09:11:06.177Z,26.71
2017-08-13T09:12:06.213Z,27.21
2017-08-13T09:13:06.160Z,27.31
2017-08-13T09:14:06.286Z,27.3
2017-08-13T09:15:05.849Z,26.97
2017-08-13T09:16:06.152Z,27.22
2017-08-13T09:17:06.154Z,27.36
2017-08-13T09:18:05.836Z,27.68
2017-08-13T09:19:06.141Z,27.78
2017-08-13T09:20:06.156Z,28
2017-08-13T09:21:06.132Z,28.34
2017-08-13T09:22:05.840Z,28.42
2017-08-13T09:23:06.131Z,28.33
2017-08-13T09:24:06.144Z,25.96
2017-08-13T09:25:06.137Z,26.13
2017-08-13T09:26:05.903Z,25.89
2017-08-13T09:27:06.123Z,26.39
2017-08-13T09:28:06.122Z,26.96
2017-08-13T09:29:06.123Z,27.6
2017-08-13T09:30:06.130Z,28.1
2017-08-13T09:31:06.122Z,28.21
2017-08-13T09:32:05.823Z,27.91
2017-08-13T09:33:06.132Z,27.81
2017-08-13T09:34:06.133Z,27.81
2017-08-13T09:35:06.122Z,27.41
2017-08-13T09:36:06.224Z,26.79
2017-08-13T09:37:05.889Z,26.39
2017-08-13T09:38:06.122Z,26.56
2017-08-13T09:39:06.197Z,26.84
2017-08-13T09:40:06.152Z,27.33
2017-08-13T09:41:06.100Z,27.36
2017-08-13T09:42:05.811Z,27.09
2017-08-13T09:43:06.099Z,26.74
2017-08-13T09:44:05.792Z,26.64
2017-08-13T09:45:06.091Z,26.51
2017-08-13T09:46:05.779Z,26.11
2017-08-13T09:47:06.069Z,25.82
2017-08-13T09:48:06.072Z,26.2
2017-08-13T09:49:06.057Z,26.63
2017-08-13T09:50:06.061Z,27.21
2017-08-13T09:51:06.049Z,26.74
2017-08-13T09:52:06.039Z,26.08
2017-08-13T09:53:06.038Z,25.36
2017-08-13T09:54:05.724Z,24.51
2017-08-13T09:55:06.026Z,24.36
2017-08-13T09:56:06.021Z,24.47
2017-08-13T09:57:05.701Z,24.46
2017-08-13T09:58:05.717Z,25.14
2017-08-13T09:59:05.485Z,25.55
2017-08-13T10:00:06.001Z,26.08
2017-08-13T10:01:06.023Z,26.29
2017-08-13T10:02:05.982Z,26.3
2017-08-13T10:03:05.681Z,26.33
2017-08-13T10:04:05.669Z,26.57
2017-08-13T10:05:05.793Z,26.76
2017-08-13T10:06:05.659Z,26.67
2017-08-13T10:07:05.951Z,27.07
2017-08-13T10:08:05.641Z,27.13
2017-08-13T10:09:05.938Z,27.01
2017-08-13T10:10:05.940Z,26.54
2017-08-13T10:11:05.622Z,26.24
2017-08-13T10:12:05.626Z,25.77
2017-08-13T10:13:05.671Z,25.94
2017-08-13T10:14:05.959Z,25.95
2017-08-13T10:15:05.900Z,26.1
2017-08-13T10:16:05.894Z,26.37
2017-08-13T10:17:05.891Z,25.77
2017-08-13T10:18:05.941Z,25.69
2017-08-13T10:19:05.563Z,25.7
2017-08-13T10:20:05.340Z,25.59
2017-08-13T10:21:05.560Z,25.63
2017-08-13T10:22:05.738Z,25.51
2017-08-13T10:23:05.529Z,25.81
2017-08-13T10:24:05.552Z,26.27
2017-08-13T10:25:05.828Z,26.54
2017-08-13T10:26:05.823Z,25.99
2017-08-13T10:27:05.532Z,26.41
2017-08-13T10:28:05.810Z,26.79
2017-08-13T10:29:05.819Z,27.01
2017-08-13T10:30:05.804Z,26.64
2017-08-13T10:31:05.800Z,25.91
2017-08-13T10:32:05.780Z,25.63
2017-08-13T10:33:05.770Z,26
2017-08-13T10:34:05.241Z,26.67
2017-08-13T10:35:05.752Z,27.01
2017-08-13T10:36:05.760Z,27.28
2017-08-13T10:37:05.753Z,27.43
2017-08-13T10:38:05.469Z,27.4
2017-08-13T10:39:05.723Z,27.46
2017-08-13T10:40:05.411Z,27.55
2017-08-13T10:41:05.758Z,27.9
2017-08-13T10:42:05.406Z,27.98
2017-08-13T10:43:05.695Z,28.23
2017-08-13T10:44:05.375Z,28.58
2017-08-13T10:45:05.696Z,28.79
2017-08-13T10:46:05.678Z,28.06
2017-08-13T10:47:05.741Z,26.79
2017-08-13T10:48:05.045Z,26.39
2017-08-13T10:49:05.033Z,26.08
2017-08-13T10:50:05.331Z,25.91
2017-08-13T10:51:05.653Z,25.77
2017-08-13T10:52:05.320Z,25.69
2017-08-13T10:53:05.722Z,25.52
2017-08-13T10:54:05.610Z,25.54
2017-08-13T10:55:05.299Z,25.42
2017-08-13T10:56:05.610Z,25.27
2017-08-13T10:57:05.589Z,25.08
2017-08-13T10:58:05.278Z,25.05
2017-08-13T10:59:05.561Z,24.85
2017-08-13T11:00:05.602Z,24.84
2017-08-13T11:01:05.601Z,24.59
2017-08-13T11:02:05.218Z,24.47
2017-08-13T11:03:05.530Z,24.64
2017-08-13T11:04:05.297Z,24.62
2017-08-13T11:05:05.208Z,24.77
2017-08-13T11:06:05.507Z,24.71
2017-08-13T11:07:05.170Z,24.61
2017-08-13T11:08:05.535Z,24.71
2017-08-13T11:09:05.460Z,24.57
2017-08-13T11:10:05.157Z,24.8
2017-08-13T11:11:05.460Z,24.8
2017-08-13T11:12:05.131Z,24.8
2017-08-13T11:13:05.128Z,24.7
2017-08-13T11:14:05.417Z,24.55
2017-08-13T11:15:05.117Z,24.39
2017-08-13T11:16:05.408Z,24.29
2017-08-13T11:17:05.401Z,24.24
2017-08-13T11:18:05.378Z,24.21
2017-08-13T11:19:05.073Z,24.24
2017-08-13T11:20:04.772Z,24.14
2017-08-13T11:21:05.351Z,24.1
2017-08-13T11:22:05.340Z,24.06
2017-08-13T11:23:05.315Z,24.18
2017-08-13T11:24:05.321Z,24.21
2017-08-13T11:25:05.319Z,24
2017-08-13T11:26:05.309Z,23.95
2017-08-13T11:27:05.289Z,24.12
2017-08-13T11:28:04.977Z,23.81
2017-08-13T11:29:05.261Z,24.17
2017-08-13T11:30:05.250Z,24.22
2017-08-13T11:31:04.940Z,24.8
2017-08-13T11:32:05.238Z,25.14
2017-08-13T11:33:05.220Z,25.27
2017-08-13T11:34:04.920Z,25.3
2017-08-13T11:35:04.925Z,25.27
2017-08-13T11:36:05.192Z,25.25
2017-08-13T11:37:05.190Z,25.56
2017-08-13T11:38:04.869Z,25.96
2017-08-13T11:39:05.169Z,26.15
2017-08-13T11:40:05.160Z,26.1
2017-08-13T11:41:04.841Z,26.24
2017-08-13T11:42:05.130Z,26.42
2017-08-13T11:43:05.192Z,25.95
2017-08-13T11:44:05.128Z,25.74
2017-08-13T11:45:05.107Z,25.88
2017-08-13T11:46:04.815Z,26.07
2017-08-13T11:47:05.079Z,26
2017-08-13T11:48:05.079Z,26.19
2017-08-13T11:49:04.790Z,26.19
2017-08-13T11:50:05.061Z,26.37
2017-08-13T11:51:05.062Z,26.64
2017-08-13T11:52:05.040Z,26.59
2017-08-13T11:53:04.737Z,26.7
2017-08-13T11:54:05.040Z,26.91
2017-08-13T11:55:05.030Z,27.09
2017-08-13T11:56:05.018Z,26.84
2017-08-13T11:57:05.012Z,26.78
2017-08-13T11:58:05.002Z,26.45
2017-08-13T11:59:04.991Z,26.67
2017-08-13T12:00:05.000Z,26.67
2017-08-13T12:01:04.984Z,26.76
2017-08-13T12:02:04.987Z,26.59
2017-08-13T12:03:04.971Z,26.38
2017-08-13T12:04:04.960Z,26.47
2017-08-13T12:05:04.993Z,26.57
2017-08-13T12:06:04.928Z,26.61
2017-08-13T12:07:04.920Z,26.74
2017-08-13T12:08:04.923Z,26.88
2017-08-13T12:09:04.899Z,27.11
2017-08-13T12:10:04.903Z,27.19
2017-08-13T12:11:04.588Z,27.23
2017-08-13T12:12:04.590Z,27.48
2017-08-13T12:13:04.581Z,27.48
2017-08-13T12:14:04.863Z,27.64
2017-08-13T12:15:04.890Z,27.49
2017-08-13T12:16:04.859Z,27.26
2017-08-13T12:17:04.826Z,27.23
2017-08-13T12:18:04.839Z,27.28
2017-08-13T12:19:04.841Z,27.61
2017-08-13T12:20:04.532Z,27.84
2017-08-13T12:21:04.803Z,28.3
2017-08-13T12:22:04.951Z,27.96
2017-08-13T12:23:04.799Z,28.01
2017-08-13T12:24:04.892Z,27.94
2017-08-13T12:25:04.781Z,28.21
2017-08-13T12:26:04.883Z,28.45
2017-08-13T12:27:04.771Z,28.33
2017-08-13T12:28:04.771Z,28.52
2017-08-13T12:29:04.762Z,28.35
2017-08-13T12:30:04.738Z,28.15
2017-08-13T12:31:04.743Z,27.84
2017-08-13T12:32:04.443Z,27.21
2017-08-13T12:33:04.733Z,27.66
2017-08-13T12:34:04.814Z,27.74
2017-08-13T12:35:04.725Z,27.76
2017-08-13T12:36:04.701Z,27.48
2017-08-13T12:37:04.707Z,27.69
2017-08-13T12:38:04.664Z,28.05
2017-08-13T12:39:04.716Z,27.93
2017-08-13T12:40:04.346Z,27.49
2017-08-13T12:41:04.652Z,27.3
2017-08-13T12:42:04.322Z,27.18
2017-08-13T12:43:04.328Z,25.94
2017-08-13T12:44:04.321Z,26.19
2017-08-13T12:45:04.614Z,26.59
2017-08-13T12:46:04.604Z,26.94
2017-08-13T12:47:04.614Z,27.25
2017-08-13T12:48:04.581Z,27.61
2017-08-13T12:49:04.588Z,27.68
2017-08-13T12:50:04.579Z,27.98
2017-08-13T12:51:04.260Z,27.75
2017-08-13T12:52:04.587Z,27.71
2017-08-13T12:53:04.241Z,27.63
2017-08-13T12:54:03.916Z,27.4
2017-08-13T12:55:03.917Z,26.86